createdAt,value
2023-03-17T00:00:50.383Z,35.10
2023-03-17T00:03:32.380Z,32.83
2023-03-17T00:06:00.669Z,33.67
2023-03-17T00:08:36.443Z,32.53
2023-03-17T00:11:08.063Z,28.80
2023-03-17T00:13:36.651Z,28.90
2023-03-17T00:16:08.029Z,28.83
2023-03-17T00:18:38.212Z,27.10
2023-03-17T00:21:12.783Z,25.10
2023-03-17T00:23:42.469Z,24.67
2023-03-17T00:26:11.236Z,32.03
2023-03-17T00:28:40.914Z,24.27
2023-03-17T00:31:23.963Z,23.07
2023-03-17T00:33:58.857Z,18.33
2023-03-17T00:36:29.829Z,17.23
2023-03-17T00:38:58.783Z,16.30
2023-03-17T00:41:27.685Z,14.47
2023-03-17T00:43:59.098Z,17.20
2023-03-17T00:46:36.222Z,15.87
2023-03-17T00:49:21.546Z,15.53
2023-03-17T00:51:51.451Z,16.57
2023-03-17T00:54:21.897Z,17.20
2023-03-17T00:56:52.297Z,20.57
2023-03-17T00:59:26.441Z,17.03
2023-03-17T01:01:55.738Z,17.33
2023-03-17T01:04:25.815Z,16.73
2023-03-17T01:06:54.360Z,16.03
2023-03-17T01:09:26.693Z,16.37
2023-03-17T01:11:55.956Z,15.50
2023-03-17T01:14:26.757Z,14.87
2023-03-17T01:16:55.647Z,14.37
2023-03-17T01:19:29.595Z,14.33
2023-03-17T01:21:58.333Z,14.47
2023-03-17T01:24:29.106Z,14.57
2023-03-17T01:26:57.644Z,15.40
2023-03-17T01:29:26.006Z,15.03
2023-03-17T01:31:54.229Z,16.93
2023-03-17T01:34:22.824Z,16.03
2023-03-17T01:36:51.289Z,15.43
2023-03-17T01:39:21.362Z,16.23
2023-03-17T01:42:09.396Z,15.67
2023-03-17T01:45:03.739Z,17.20
2023-03-17T01:47:32.433Z,16.37
2023-03-17T01:50:10.253Z,17.57
2023-03-17T01:52:40.064Z,17.97
2023-03-17T01:55:29.441Z,16.80
2023-03-17T01:57:58.000Z,17.67
2023-03-17T02:00:27.017Z,17.60
2023-03-17T02:02:56.937Z,17.23
2023-03-17T02:05:28.605Z,18.40
2023-03-17T02:07:57.310Z,16.97
2023-03-17T02:10:30.180Z,16.77
2023-03-17T02:13:01.633Z,18.00
2023-03-17T02:15:47.405Z,16.53
2023-03-17T02:18:18.097Z,17.33
2023-03-17T02:20:55.737Z,17.57
2023-03-17T02:23:26.882Z,17.07
2023-03-17T02:25:55.825Z,17.17
2023-03-17T02:28:27.580Z,17.23
2023-03-17T02:30:57.820Z,17.27
2023-03-17T02:33:26.125Z,17.33
2023-03-17T02:35:57.849Z,17.97
2023-03-17T02:38:26.448Z,17.80
2023-03-17T02:40:54.950Z,18.07
2023-03-17T02:43:23.215Z,19.27
2023-03-17T02:45:51.437Z,18.57
2023-03-17T02:48:20.554Z,19.37
2023-03-17T02:50:48.625Z,20.87
2023-03-17T02:53:18.651Z,19.90
2023-03-17T02:55:46.940Z,20.00
2023-03-17T02:58:15.321Z,19.73
2023-03-17T03:00:44.001Z,19.63
2023-03-17T03:03:12.460Z,19.03
2023-03-17T03:05:40.921Z,19.27
2023-03-17T03:08:10.605Z,18.77
2023-03-17T03:10:38.715Z,18.87
2023-03-17T03:13:09.664Z,19.20
2023-03-17T03:15:44.228Z,21.23
2023-03-17T03:18:13.611Z,21.93
2023-03-17T03:20:45.026Z,21.67
2023-03-17T03:23:51.473Z,22.33
2023-03-17T03:26:20.193Z,21.27
2023-03-17T03:28:50.060Z,23.70
2023-03-17T03:31:18.302Z,24.00
2023-03-17T03:33:47.004Z,22.57
2023-03-17T03:36:15.288Z,23.27
2023-03-17T03:38:45.744Z,24.23
2023-03-17T03:41:14.506Z,22.40
2023-03-17T03:43:47.788Z,24.07
2023-03-17T03:46:16.396Z,23.83
2023-03-17T03:48:46.496Z,23.40
2023-03-17T03:51:15.377Z,22.67
2023-03-17T03:53:44.206Z,22.50
2023-03-17T03:56:12.608Z,23.37
2023-03-17T03:58:42.242Z,24.67
2023-03-17T04:01:12.753Z,23.10
2023-03-17T04:03:42.987Z,21.47
2023-03-17T04:06:11.839Z,21.60
2023-03-17T04:08:40.161Z,22.60
2023-03-17T04:11:09.268Z,22.63
2023-03-17T04:13:37.403Z,22.57
2023-03-17T04:16:05.805Z,21.73
2023-03-17T04:18:33.898Z,21.30
2023-03-17T04:21:01.996Z,23.73
2023-03-17T04:23:31.792Z,23.10
2023-03-17T04:26:00.336Z,23.73
2023-03-17T04:28:32.723Z,23.47
2023-03-17T04:31:00.879Z,22.17
2023-03-17T04:33:29.135Z,21.90
2023-03-17T04:35:57.353Z,22.07
2023-03-17T04:38:29.776Z,21.93
2023-03-17T04:41:01.154Z,21.43
2023-03-17T04:43:31.842Z,20.47
2023-03-17T04:46:06.325Z,21.47
2023-03-17T04:48:35.602Z,20.50
2023-03-17T04:51:03.554Z,20.77
2023-03-17T04:53:31.912Z,20.93
2023-03-17T04:56:00.436Z,20.77
2023-03-17T04:58:31.871Z,21.40
2023-03-17T05:01:00.849Z,21.33
2023-03-17T05:03:30.668Z,20.90
2023-03-17T05:06:02.327Z,19.57
2023-03-17T05:08:37.100Z,18.87
2023-03-17T05:11:05.601Z,17.93
2023-03-17T05:13:36.272Z,17.73
2023-03-17T05:16:05.147Z,19.10
2023-03-17T05:18:37.530Z,17.20
2023-03-17T05:21:08.093Z,17.07
2023-03-17T05:23:36.436Z,16.57
2023-03-17T05:26:06.807Z,18.33
2023-03-17T05:28:35.507Z,17.47
2023-03-17T05:31:04.163Z,16.87
2023-03-17T05:33:32.410Z,18.60
2023-03-17T05:36:04.028Z,19.23
2023-03-17T05:38:34.220Z,18.77
2023-03-17T05:41:07.977Z,18.13
2023-03-17T05:43:37.684Z,17.93
2023-03-17T05:46:10.993Z,15.60
2023-03-17T05:48:42.486Z,15.33
2023-03-17T05:51:10.927Z,14.90
2023-03-17T05:53:42.749Z,16.27
2023-03-17T05:56:11.148Z,15.20
2023-03-17T05:58:40.307Z,16.03
2023-03-17T06:01:09.074Z,16.90
2023-03-17T06:03:39.074Z,15.47
2023-03-17T06:06:07.285Z,15.53
2023-03-17T06:08:37.248Z,16.03
2023-03-17T06:11:08.822Z,15.23
2023-03-17T06:13:38.658Z,15.33
2023-03-17T06:16:10.054Z,15.70
2023-03-17T06:18:40.197Z,15.07
2023-03-17T06:21:08.486Z,14.57
2023-03-17T06:23:36.992Z,14.90
2023-03-17T06:26:05.669Z,14.37
2023-03-17T06:28:36.220Z,14.93
2023-03-17T06:31:07.151Z,13.67
2023-03-17T06:33:35.894Z,14.30
2023-03-17T06:36:04.786Z,13.60
2023-03-17T06:38:34.874Z,14.67
2023-03-17T06:41:03.720Z,13.50
2023-03-17T06:43:33.060Z,14.57
2023-03-17T06:46:05.116Z,14.93
2023-03-17T06:48:35.621Z,16.07
2023-03-17T06:51:04.626Z,16.00
2023-03-17T06:53:33.095Z,14.93
2023-03-17T06:56:01.376Z,16.57
2023-03-17T06:58:32.723Z,15.87
2023-03-17T07:01:04.542Z,15.00
2023-03-17T07:03:33.086Z,15.70
2023-03-17T07:06:04.285Z,16.60
2023-03-17T07:08:32.351Z,14.97
2023-03-17T07:11:06.395Z,15.97
2023-03-17T07:13:37.586Z,15.73
2023-03-17T07:16:06.139Z,15.90
2023-03-17T07:18:39.875Z,16.23
2023-03-17T07:21:08.373Z,17.20
2023-03-17T07:23:36.786Z,15.60
2023-03-17T07:26:05.136Z,15.87
2023-03-17T07:28:34.708Z,16.50
2023-03-17T07:31:14.566Z,16.53
2023-03-17T07:33:42.910Z,17.30
2023-03-17T07:36:11.318Z,17.20
2023-03-17T07:38:43.610Z,18.73
2023-03-17T07:41:11.960Z,17.77
2023-03-17T07:43:42.123Z,18.17
2023-03-17T07:46:10.036Z,18.80
2023-03-17T07:48:42.640Z,20.73
2023-03-17T07:51:16.474Z,20.23
2023-03-17T07:53:45.527Z,21.50
2023-03-17T07:56:14.560Z,21.57
2023-03-17T07:58:42.811Z,20.97
2023-03-17T08:01:10.847Z,21.80
2023-03-17T08:03:41.382Z,21.73
2023-03-17T08:06:09.682Z,22.53
2023-03-17T08:08:37.998Z,22.80
2023-03-17T08:11:06.328Z,23.03
2023-03-17T08:13:35.104Z,23.07
2023-03-17T08:16:07.587Z,23.30
2023-03-17T08:18:36.851Z,24.23
2023-03-17T08:21:08.376Z,25.13
2023-03-17T08:23:38.534Z,24.87
2023-03-17T08:26:06.886Z,24.33
2023-03-17T08:28:40.093Z,22.83
2023-03-17T08:31:13.884Z,23.60
2023-03-17T08:33:42.743Z,23.27
2023-03-17T08:36:13.842Z,24.50
2023-03-17T08:38:43.129Z,23.93
2023-03-17T08:41:23.159Z,22.70
2023-03-17T08:43:52.117Z,22.23
2023-03-17T08:46:26.601Z,21.00
2023-03-17T08:48:59.335Z,20.40
2023-03-17T08:51:31.289Z,20.63
2023-03-17T08:54:01.363Z,20.60
2023-03-17T08:56:33.057Z,20.60
2023-03-17T08:59:01.404Z,19.27
2023-03-17T09:01:29.981Z,21.20
2023-03-17T09:03:58.836Z,19.90
2023-03-17T09:06:27.313Z,20.90
2023-03-17T09:08:58.077Z,20.47
2023-03-17T09:11:28.561Z,19.90
2023-03-17T09:14:00.543Z,19.60
2023-03-17T09:16:34.344Z,20.50
2023-03-17T09:19:04.493Z,19.63
2023-03-17T09:21:32.928Z,19.33
2023-03-17T09:24:02.662Z,18.60
2023-03-17T09:26:32.347Z,18.07
2023-03-17T09:29:02.526Z,17.27
2023-03-17T09:31:32.926Z,18.13
2023-03-17T09:34:08.512Z,18.03
2023-03-17T09:36:39.877Z,18.20
2023-03-17T09:39:09.215Z,17.83
2023-03-17T09:42:02.707Z,18.60
2023-03-17T09:44:56.241Z,18.83
2023-03-17T09:47:32.976Z,18.03
2023-03-17T09:50:06.120Z,18.37
2023-03-17T09:52:37.125Z,17.90
2023-03-17T09:55:08.903Z,17.30
2023-03-17T09:57:40.890Z,16.63
2023-03-17T10:00:14.887Z,16.47
2023-03-17T10:02:44.152Z,16.47
2023-03-17T10:05:28.644Z,17.00
2023-03-17T10:08:45.046Z,18.10
2023-03-17T10:11:26.762Z,18.03
2023-03-17T10:14:11.555Z,17.53
2023-03-17T10:16:49.136Z,18.83
2023-03-17T10:19:22.303Z,16.20
2023-03-17T10:22:46.560Z,16.73
2023-03-17T10:25:29.795Z,17.10
2023-03-17T10:28:03.884Z,15.80
2023-03-17T10:30:36.676Z,15.23
2023-03-17T10:33:09.414Z,16.77
2023-03-17T10:35:41.636Z,15.10
2023-03-17T10:38:21.805Z,16.17
2023-03-17T10:41:08.149Z,16.20
2023-03-17T10:43:44.991Z,15.77
2023-03-17T10:46:26.871Z,16.60
2023-03-17T10:48:58.902Z,17.70
2023-03-17T10:51:35.937Z,15.27
2023-03-17T10:54:10.472Z,16.27
2023-03-17T10:56:42.728Z,16.47
2023-03-17T10:59:22.267Z,16.03
2023-03-17T11:01:56.717Z,15.67
2023-03-17T11:04:32.778Z,16.20
2023-03-17T11:07:23.384Z,15.63
2023-03-17T11:09:52.889Z,16.77
2023-03-17T11:12:27.686Z,17.67
2023-03-17T11:15:08.157Z,17.07
2023-03-17T11:17:59.588Z,16.60
2023-03-17T11:20:45.894Z,17.10
2023-03-17T11:23:44.198Z,17.77
2023-03-17T11:26:27.173Z,19.03
2023-03-17T11:29:25.039Z,19.00
2023-03-17T11:32:11.993Z,17.47
2023-03-17T11:34:48.822Z,18.27
2023-03-17T11:37:26.703Z,17.60
2023-03-17T11:40:22.758Z,18.10
2023-03-17T11:43:29.397Z,14.50
2023-03-17T11:46:08.145Z,16.17
2023-03-17T11:48:58.169Z,14.90
2023-03-17T11:51:30.665Z,15.57
2023-03-17T11:54:25.277Z,16.20
2023-03-17T11:57:02.205Z,16.47
2023-03-17T11:59:42.379Z,15.93
2023-03-17T12:02:23.732Z,14.73
2023-03-17T12:04:56.141Z,14.17
2023-03-17T12:07:29.203Z,13.70
2023-03-17T12:10:52.448Z,14.30
2023-03-17T12:13:37.530Z,14.30
2023-03-17T12:16:12.206Z,14.93
2023-03-17T12:19:08.737Z,14.17
2023-03-17T12:21:46.054Z,13.80
2023-03-17T12:24:21.999Z,13.87
2023-03-17T12:26:57.770Z,14.97
2023-03-17T12:29:41.387Z,15.43
2023-03-17T12:32:18.622Z,15.27
2023-03-17T12:34:57.480Z,14.37
2023-03-17T12:37:30.615Z,15.30
2023-03-17T12:40:05.621Z,15.50
2023-03-17T12:42:52.708Z,14.70
2023-03-17T12:45:41.724Z,15.47
2023-03-17T12:48:34.428Z,14.73
2023-03-17T12:51:40.299Z,15.27
2023-03-17T12:54:30.102Z,13.87
2023-03-17T12:57:24.500Z,14.57
2023-03-17T13:00:01.487Z,15.53
2023-03-17T13:02:30.021Z,14.53
2023-03-17T13:05:01.197Z,15.37
2023-03-17T13:07:38.412Z,17.47
2023-03-17T13:10:14.084Z,18.03
2023-03-17T13:12:44.919Z,18.43
2023-03-17T13:15:28.946Z,19.13
2023-03-17T13:18:15.791Z,20.13
2023-03-17T13:20:57.349Z,19.03
2023-03-17T13:23:38.590Z,19.87
2023-03-17T13:26:07.040Z,20.30
2023-03-17T13:28:36.147Z,18.67
2023-03-17T13:31:15.028Z,20.47
2023-03-17T13:33:54.334Z,18.70
2023-03-17T13:36:47.319Z,19.60
2023-03-17T13:39:40.645Z,19.80
2023-03-17T13:42:24.129Z,19.77
2023-03-17T13:45:16.595Z,18.80
2023-03-17T13:47:46.334Z,20.87
2023-03-17T13:50:24.511Z,21.00
2023-03-17T13:53:05.694Z,19.90
2023-03-17T13:55:44.660Z,20.70
2023-03-17T13:58:32.672Z,21.07
2023-03-17T14:01:04.255Z,20.33
2023-03-17T14:03:41.673Z,21.13
2023-03-17T14:06:12.666Z,20.63
2023-03-17T14:08:51.730Z,20.80
2023-03-17T14:11:41.604Z,20.07
2023-03-17T14:14:45.183Z,20.23
2023-03-17T14:17:19.973Z,19.23
2023-03-17T14:20:08.501Z,19.30
2023-03-17T14:22:47.636Z,17.67
2023-03-17T14:25:24.809Z,18.20
2023-03-17T14:27:57.447Z,18.00
2023-03-17T14:30:31.061Z,17.80
2023-03-17T14:33:25.250Z,17.47
2023-03-17T14:35:54.798Z,18.17
2023-03-17T14:38:33.727Z,18.17
2023-03-17T14:41:07.535Z,17.47
2023-03-17T14:43:37.044Z,18.63
2023-03-17T14:46:08.055Z,18.73
2023-03-17T14:48:38.209Z,20.27
2023-03-17T14:51:39.513Z,20.77
2023-03-17T14:54:21.467Z,21.30
2023-03-17T14:57:05.490Z,23.00
2023-03-17T14:59:41.031Z,20.63
2023-03-17T15:02:38.272Z,18.40
2023-03-17T15:05:29.717Z,17.80
2023-03-17T15:07:58.173Z,15.90
2023-03-17T15:10:31.503Z,15.73
2023-03-17T15:13:02.342Z,13.07
2023-03-17T15:15:33.298Z,13.73
2023-03-17T15:18:06.196Z,12.63
2023-03-17T15:20:35.946Z,12.30
2023-03-17T15:23:14.072Z,11.77
2023-03-17T15:25:44.673Z,11.77
2023-03-17T15:28:21.141Z,12.87
2023-03-17T15:30:52.802Z,13.03
2023-03-17T15:33:22.945Z,12.47
2023-03-17T15:35:51.452Z,13.00
2023-03-17T15:38:20.071Z,14.00
2023-03-17T15:40:48.190Z,14.00
2023-03-17T15:43:18.842Z,13.63
2023-03-17T15:45:52.521Z,13.53
2023-03-17T15:48:35.377Z,13.73
2023-03-17T15:51:04.826Z,13.33
2023-03-17T15:53:32.855Z,13.13
2023-03-17T15:56:01.981Z,13.00
2023-03-17T15:58:30.345Z,11.77
2023-03-17T16:01:00.376Z,12.53
2023-03-17T16:03:37.369Z,12.67
2023-03-17T16:06:11.383Z,12.30
2023-03-17T16:08:40.947Z,12.57
2023-03-17T16:11:28.681Z,12.20
2023-03-17T16:14:03.159Z,10.47
2023-03-17T16:16:37.583Z,10.87
2023-03-17T16:19:06.886Z,10.53
2023-03-17T16:21:36.406Z,11.13
2023-03-17T16:24:04.882Z,10.93
2023-03-17T16:26:36.837Z,11.03
2023-03-17T16:29:15.037Z,11.17
2023-03-17T16:31:46.154Z,11.47
2023-03-17T16:34:17.084Z,11.93
2023-03-17T16:36:46.290Z,11.80
2023-03-17T16:39:20.123Z,12.77
2023-03-17T16:41:53.984Z,12.67
2023-03-17T16:44:24.212Z,13.67
2023-03-17T16:46:54.380Z,13.00
2023-03-17T16:49:23.261Z,13.97
2023-03-17T16:51:53.593Z,14.27
2023-03-17T16:54:23.793Z,15.03
2023-03-17T16:56:52.341Z,15.30
2023-03-17T16:59:24.811Z,15.23
2023-03-17T17:01:55.217Z,14.87
2023-03-17T17:04:24.689Z,15.47
2023-03-17T17:06:53.044Z,15.80
2023-03-17T17:09:21.007Z,16.43
2023-03-17T17:11:49.076Z,17.43
2023-03-17T17:14:17.588Z,17.93
2023-03-17T17:16:47.280Z,17.43
2023-03-17T17:19:17.393Z,18.27
2023-03-17T17:21:46.091Z,18.97
2023-03-17T17:24:15.923Z,18.37
2023-03-17T17:26:45.104Z,18.57
2023-03-17T17:29:13.296Z,17.60
2023-03-17T17:31:44.233Z,19.03
2023-03-17T17:34:13.616Z,17.43
2023-03-17T17:36:44.967Z,19.13
2023-03-17T17:39:14.843Z,20.27
2023-03-17T17:41:44.622Z,19.57
2023-03-17T17:44:14.198Z,19.30
2023-03-17T17:46:46.030Z,19.17
2023-03-17T17:49:14.820Z,19.47
2023-03-17T17:51:48.790Z,19.23
2023-03-17T17:54:16.960Z,20.27
2023-03-17T17:56:47.106Z,20.30
2023-03-17T17:59:15.741Z,19.63
2023-03-17T18:01:44.047Z,21.17
2023-03-17T18:04:13.206Z,20.47
2023-03-17T18:06:43.527Z,19.67
2023-03-17T18:09:11.834Z,20.07
2023-03-17T18:11:41.846Z,21.50
2023-03-17T18:14:14.008Z,20.80
2023-03-17T18:16:42.602Z,21.47
2023-03-17T18:19:13.615Z,20.97
2023-03-17T18:21:48.592Z,22.03
2023-03-17T18:24:21.552Z,21.77
2023-03-17T18:26:49.769Z,21.10
2023-03-17T18:29:18.001Z,22.03
2023-03-17T18:31:49.363Z,21.83
2023-03-17T18:34:24.247Z,21.93
2023-03-17T18:36:53.213Z,23.70
2023-03-17T18:39:21.709Z,22.37
2023-03-17T18:41:54.430Z,22.17
2023-03-17T18:44:25.397Z,23.60
2023-03-17T18:46:53.547Z,22.73
2023-03-17T18:49:28.763Z,23.13
2023-03-17T18:51:57.842Z,23.93
2023-03-17T18:54:28.141Z,23.93
2023-03-17T18:56:59.831Z,22.77
2023-03-17T18:59:28.468Z,24.20
2023-03-17T19:02:02.325Z,24.87
2023-03-17T19:04:31.017Z,24.80
2023-03-17T19:06:59.380Z,24.27
2023-03-17T19:09:28.221Z,25.77
2023-03-17T19:11:57.995Z,24.53
2023-03-17T19:14:26.434Z,26.57
2023-03-17T19:16:54.982Z,25.60
2023-03-17T19:19:27.874Z,25.50
2023-03-17T19:21:56.074Z,25.53
2023-03-17T19:24:25.462Z,28.43
2023-03-17T19:26:54.193Z,26.43
2023-03-17T19:29:22.954Z,27.17
2023-03-17T19:31:51.291Z,26.63
2023-03-17T19:34:19.586Z,28.27
2023-03-17T19:36:47.760Z,28.87
2023-03-17T19:39:17.357Z,29.57
2023-03-17T19:41:47.744Z,28.43
2023-03-17T19:44:22.620Z,27.97
2023-03-17T19:46:50.911Z,28.47
2023-03-17T19:49:20.756Z,28.27
2023-03-17T19:51:50.041Z,28.87
2023-03-17T19:54:23.536Z,27.47
2023-03-17T19:56:52.182Z,26.67
2023-03-17T19:59:23.341Z,26.67
2023-03-17T20:01:54.013Z,26.83
2023-03-17T20:04:23.497Z,25.60
2023-03-17T20:06:56.055Z,26.23
2023-03-17T20:09:26.662Z,25.57
2023-03-17T20:11:56.851Z,25.77
2023-03-17T20:14:26.069Z,25.93
2023-03-17T20:16:54.375Z,25.33
2023-03-17T20:19:22.880Z,25.93
2023-03-17T20:21:53.828Z,24.23
2023-03-17T20:24:22.743Z,21.00
2023-03-17T20:26:52.028Z,21.33
2023-03-17T20:29:24.632Z,21.63
2023-03-17T20:31:52.856Z,19.23
2023-03-17T20:34:22.271Z,20.33
2023-03-17T20:36:51.811Z,18.90
2023-03-17T20:39:22.692Z,19.53
2023-03-17T20:41:52.106Z,19.03
2023-03-17T20:44:21.860Z,19.63
2023-03-17T20:46:58.978Z,20.70
2023-03-17T20:49:30.440Z,20.20
2023-03-17T20:52:00.093Z,19.57
2023-03-17T20:54:29.195Z,18.50
2023-03-17T20:56:57.569Z,18.90
2023-03-17T20:59:26.464Z,19.03
2023-03-17T21:01:55.080Z,17.07
2023-03-17T21:04:24.564Z,17.90
2023-03-17T21:06:53.707Z,17.77
2023-03-17T21:09:21.900Z,18.50
2023-03-17T21:11:50.133Z,18.57
2023-03-17T21:14:21.806Z,18.20
2023-03-17T21:16:50.820Z,18.27
2023-03-17T21:19:20.021Z,19.37
2023-03-17T21:21:48.874Z,18.47
2023-03-17T21:24:34.717Z,17.67
2023-03-17T21:27:05.908Z,20.77
2023-03-17T21:29:35.350Z,17.83
2023-03-17T21:32:07.641Z,17.50
2023-03-17T21:34:37.059Z,18.57
2023-03-17T21:37:05.592Z,16.07
2023-03-17T21:39:36.577Z,18.43
2023-03-17T21:42:08.453Z,16.00
2023-03-17T21:44:36.853Z,16.53
2023-03-17T21:47:05.144Z,17.50
2023-03-17T21:49:33.784Z,17.20
2023-03-17T21:52:02.615Z,17.70
2023-03-17T21:54:31.008Z,16.20
2023-03-17T21:57:04.933Z,16.93
2023-03-17T21:59:34.729Z,17.17
2023-03-17T22:02:03.945Z,16.30
2023-03-17T22:04:33.142Z,17.80
2023-03-17T22:07:03.532Z,17.30
2023-03-17T22:09:31.947Z,16.43
2023-03-17T22:12:01.087Z,14.27
2023-03-17T22:14:30.830Z,15.53
2023-03-17T22:17:00.943Z,16.87
2023-03-17T22:19:29.372Z,17.53
2023-03-17T22:21:59.909Z,16.40
2023-03-17T22:24:28.644Z,17.90
2023-03-17T22:26:59.674Z,17.67
2023-03-17T22:29:31.759Z,16.40
2023-03-17T22:32:00.095Z,18.33
2023-03-17T22:34:28.781Z,16.67
2023-03-17T22:36:57.379Z,16.40
2023-03-17T22:39:26.102Z,17.00
2023-03-17T22:42:18.971Z,15.53
2023-03-17T22:44:47.254Z,15.37
2023-03-17T22:47:19.360Z,14.90
2023-03-17T22:49:48.908Z,15.07
2023-03-17T22:52:17.430Z,15.00
2023-03-17T22:55:15.236Z,14.73
2023-03-17T22:57:44.341Z,16.17
2023-03-17T23:00:18.219Z,16.03
2023-03-17T23:02:46.777Z,17.37
2023-03-17T23:05:15.329Z,16.37
2023-03-17T23:07:51.866Z,17.00
2023-03-17T23:10:23.601Z,16.23
2023-03-17T23:12:56.814Z,16.97
2023-03-17T23:15:28.667Z,18.30
2023-03-17T23:17:57.120Z,17.60
2023-03-17T23:20:25.862Z,17.93
2023-03-17T23:22:54.267Z,17.83
2023-03-17T23:25:23.215Z,18.07
2023-03-17T23:27:52.147Z,17.00
2023-03-17T23:30:21.562Z,17.23
2023-03-17T23:32:50.648Z,17.13
2023-03-17T23:35:20.032Z,15.57
2023-03-17T23:37:48.687Z,15.43
2023-03-17T23:40:17.575Z,14.87
2023-03-17T23:42:48.306Z,16.50
2023-03-17T23:45:19.157Z,15.97
2023-03-17T23:47:48.236Z,14.83
2023-03-17T23:50:21.850Z,15.17
2023-03-17T23:52:52.401Z,15.10
2023-03-17T23:55:20.548Z,14.50
2023-03-17T23:57:49.688Z,16.10
